sensor_id;sensor_type;location;lat;lon;timestamp;P1;durP1;ratioP1;P2;durP2;ratioP2
5454;SDS011;2750;49.050;9.250;2022-07-23T00:01:08;10.30;;;9.38;;
5454;SDS011;2750;49.050;9.250;2022-07-23T00:06:10;9.98;;;9.13;;
5454;SDS011;2750;49.050;9.250;2022-07-23T00:11:12;10.60;;;8.77;;
5454;SDS011;2750;49.050;9.250;2022-07-23T00:16:14;9.77;;;8.82;;
5454;SDS011;2750;49.050;9.250;2022-07-23T00:21:16;9.57;;;8.70;;
5454;SDS011;2750;49.050;9.250;2022-07-23T00:26:18;9.50;;;8.60;;
5454;SDS011;2750;49.050;9.250;2022-07-23T00:31:19;9.10;;;8.30;;
5454;SDS011;2750;49.050;9.250;2022-07-23T00:36:22;9.00;;;7.85;;
5454;SDS011;2750;49.050;9.250;2022-07-23T00:41:24;8.65;;;7.75;;
5454;SDS011;2750;49.050;9.250;2022-07-23T00:46:25;8.57;;;7.78;;
5454;SDS011;2750;49.050;9.250;2022-07-23T00:51:28;7.95;;;7.25;;
5454;SDS011;2750;49.050;9.250;2022-07-23T00:56:29;7.38;;;6.63;;
5454;SDS011;2750;49.050;9.250;2022-07-23T01:01:31;7.50;;;6.82;;
5454;SDS011;2750;49.050;9.250;2022-07-23T01:06:35;7.57;;;6.85;;
5454;SDS011;2750;49.050;9.250;2022-07-23T01:11:38;8.02;;;7.22;;
5454;SDS011;2750;49.050;9.250;2022-07-23T01:16:39;7.95;;;7.25;;
5454;SDS011;2750;49.050;9.250;2022-07-23T01:21:44;7.60;;;7.03;;
5454;SDS011;2750;49.050;9.250;2022-07-23T01:26:48;7.30;;;6.80;;
5454;SDS011;2750;49.050;9.250;2022-07-23T01:31:50;7.32;;;6.70;;
5454;SDS011;2750;49.050;9.250;2022-07-23T01:36:51;8.05;;;7.35;;
5454;SDS011;2750;49.050;9.250;2022-07-23T01:41:54;8.20;;;7.10;;
5454;SDS011;2750;49.050;9.250;2022-07-23T01:46:55;7.63;;;6.97;;
5454;SDS011;2750;49.050;9.250;2022-07-23T01:51:57;7.85;;;7.22;;
5454;SDS011;2750;49.050;9.250;2022-07-23T01:57:02;7.32;;;6.65;;
5454;SDS011;2750;49.050;9.250;2022-07-23T02:02:04;7.68;;;6.88;;
5454;SDS011;2750;49.050;9.250;2022-07-23T02:07:06;7.40;;;6.72;;
5454;SDS011;2750;49.050;9.250;2022-07-23T02:12:09;8.40;;;7.70;;
5454;SDS011;2750;49.050;9.250;2022-07-23T02:17:10;9.02;;;7.68;;
5454;SDS011;2750;49.050;9.250;2022-07-23T02:22:11;8.33;;;7.63;;
5454;SDS011;2750;49.050;9.250;2022-07-23T02:27:14;8.53;;;7.80;;
5454;SDS011;2750;49.050;9.250;2022-07-23T02:32:16;9.10;;;8.40;;
5454;SDS011;2750;49.050;9.250;2022-07-23T02:37:17;8.93;;;8.03;;
5454;SDS011;2750;49.050;9.250;2022-07-23T02:42:20;9.17;;;8.37;;
5454;SDS011;2750;49.050;9.250;2022-07-23T02:47:23;8.73;;;7.93;;
5454;SDS011;2750;49.050;9.250;2022-07-23T02:52:25;8.50;;;7.53;;
5454;SDS011;2750;49.050;9.250;2022-07-23T02:57:27;8.00;;;7.27;;
5454;SDS011;2750;49.050;9.250;2022-07-23T03:02:29;8.60;;;7.90;;
5454;SDS011;2750;49.050;9.250;2022-07-23T03:07:30;8.90;;;8.00;;
5454;SDS011;2750;49.050;9.250;2022-07-23T03:12:48;8.33;;;7.63;;
5454;SDS011;2750;49.050;9.250;2022-07-23T03:17:50;9.97;;;8.90;;
5454;SDS011;2750;49.050;9.250;2022-07-23T03:22:51;9.17;;;8.30;;
5454;SDS011;2750;49.050;9.250;2022-07-23T03:27:54;9.47;;;8.57;;
5454;SDS011;2750;49.050;9.250;2022-07-23T03:32:55;9.00;;;8.03;;
5454;SDS011;2750;49.050;9.250;2022-07-23T03:37:57;9.80;;;8.93;;
5454;SDS011;2750;49.050;9.250;2022-07-23T03:43:00;10.27;;;9.37;;
5454;SDS011;2750;49.050;9.250;2022-07-23T03:48:01;10.30;;;9.23;;
5454;SDS011;2750;49.050;9.250;2022-07-23T03:53:03;9.63;;;8.60;;
5454;SDS011;2750;49.050;9.250;2022-07-23T03:58:06;8.90;;;8.07;;
5454;SDS011;2750;49.050;9.250;2022-07-23T04:03:07;9.27;;;7.97;;
5454;SDS011;2750;49.050;9.250;2022-07-23T04:08:09;9.73;;;7.97;;
5454;SDS011;2750;49.050;9.250;2022-07-23T04:13:11;9.17;;;8.30;;
5454;SDS011;2750;49.050;9.250;2022-07-23T04:18:13;8.63;;;7.93;;
5454;SDS011;2750;49.050;9.250;2022-07-23T04:23:17;9.47;;;8.43;;
5454;SDS011;2750;49.050;9.250;2022-07-23T04:28:20;8.53;;;7.73;;
5454;SDS011;2750;49.050;9.250;2022-07-23T04:33:21;8.10;;;7.38;;
5454;SDS011;2750;49.050;9.250;2022-07-23T04:38:23;8.63;;;7.82;;
5454;SDS011;2750;49.050;9.250;2022-07-23T04:43:25;8.23;;;7.45;;
5454;SDS011;2750;49.050;9.250;2022-07-23T04:48:27;8.38;;;7.55;;
5454;SDS011;2750;49.050;9.250;2022-07-23T04:53:28;8.20;;;7.55;;
5454;SDS011;2750;49.050;9.250;2022-07-23T04:58:31;8.40;;;7.60;;
5454;SDS011;2750;49.050;9.250;2022-07-23T05:03:33;8.57;;;7.78;;
5454;SDS011;2750;49.050;9.250;2022-07-23T05:08:35;11.07;;;8.55;;
5454;SDS011;2750;49.050;9.250;2022-07-23T05:13:38;8.70;;;7.82;;
5454;SDS011;2750;49.050;9.250;2022-07-23T05:18:39;9.05;;;8.25;;
5454;SDS011;2750;49.050;9.250;2022-07-23T05:23:41;9.73;;;8.93;;
5454;SDS011;2750;49.050;9.250;2022-07-23T05:28:44;10.13;;;9.25;;
5454;SDS011;2750;49.050;9.250;2022-07-23T05:33:45;10.63;;;9.63;;
5454;SDS011;2750;49.050;9.250;2022-07-23T05:38:47;10.10;;;9.10;;
5454;SDS011;2750;49.050;9.250;2022-07-23T05:43:50;11.13;;;9.73;;
5454;SDS011;2750;49.050;9.250;2022-07-23T05:48:51;10.90;;;9.80;;
5454;SDS011;2750;49.050;9.250;2022-07-23T05:53:53;11.32;;;10.18;;
5454;SDS011;2750;49.050;9.250;2022-07-23T05:58:56;12.27;;;11.00;;
5454;SDS011;2750;49.050;9.250;2022-07-23T06:03:57;11.13;;;10.13;;
5454;SDS011;2750;49.050;9.250;2022-07-23T06:08:59;11.97;;;10.77;;
5454;SDS011;2750;49.050;9.250;2022-07-23T06:14:02;27.13;;;11.27;;
5454;SDS011;2750;49.050;9.250;2022-07-23T06:19:03;12.83;;;11.70;;
5454;SDS011;2750;49.050;9.250;2022-07-23T06:24:05;13.17;;;11.97;;
5454;SDS011;2750;49.050;9.250;2022-07-23T06:29:08;12.97;;;11.77;;
5454;SDS011;2750;49.050;9.250;2022-07-23T06:34:10;13.30;;;12.03;;
5454;SDS011;2750;49.050;9.250;2022-07-23T06:39:11;13.40;;;12.00;;
5454;SDS011;2750;49.050;9.250;2022-07-23T06:44:14;14.13;;;12.60;;
5454;SDS011;2750;49.050;9.250;2022-07-23T06:49:16;12.85;;;11.65;;
5454;SDS011;2750;49.050;9.250;2022-07-23T06:54:17;13.90;;;12.07;;
5454;SDS011;2750;49.050;9.250;2022-07-23T06:59:20;13.77;;;12.38;;
5454;SDS011;2750;49.050;9.250;2022-07-23T07:04:22;14.70;;;13.17;;
5454;SDS011;2750;49.050;9.250;2022-07-23T07:09:23;14.40;;;13.20;;
5454;SDS011;2750;49.050;9.250;2022-07-23T07:14:26;15.13;;;13.63;;
5454;SDS011;2750;49.050;9.250;2022-07-23T07:19:28;16.83;;;14.83;;
5454;SDS011;2750;49.050;9.250;2022-07-23T07:24:29;15.27;;;13.73;;
5454;SDS011;2750;49.050;9.250;2022-07-23T07:29:32;15.30;;;13.97;;
5454;SDS011;2750;49.050;9.250;2022-07-23T07:34:33;17.13;;;15.37;;
5454;SDS011;2750;49.050;9.250;2022-07-23T07:39:35;17.83;;;15.53;;
5454;SDS011;2750;49.050;9.250;2022-07-23T07:44:37;16.60;;;15.03;;
5454;SDS011;2750;49.050;9.250;2022-07-23T07:49:39;16.87;;;15.17;;
5454;SDS011;2750;49.050;9.250;2022-07-23T07:54:40;15.10;;;13.70;;
5454;SDS011;2750;49.050;9.250;2022-07-23T07:59:44;15.37;;;13.77;;
5454;SDS011;2750;49.050;9.250;2022-07-23T08:04:45;16.13;;;14.37;;
5454;SDS011;2750;49.050;9.250;2022-07-23T08:09:48;13.65;;;12.55;;
5454;SDS011;2750;49.050;9.250;2022-07-23T08:14:51;13.60;;;12.38;;
5454;SDS011;2750;49.050;9.250;2022-07-23T08:19:53;14.68;;;12.93;;
5454;SDS011;2750;49.050;9.250;2022-07-23T08:24:54;15.30;;;14.02;;
5454;SDS011;2750;49.050;9.250;2022-07-23T08:29:58;15.60;;;14.10;;
5454;SDS011;2750;49.050;9.250;2022-07-23T08:34:59;15.68;;;14.15;;
5454;SDS011;2750;49.050;9.250;2022-07-23T08:40:00;16.10;;;14.27;;
5454;SDS011;2750;49.050;9.250;2022-07-23T08:45:04;15.90;;;14.45;;
5454;SDS011;2750;49.050;9.250;2022-07-23T08:50:08;15.57;;;14.05;;
5454;SDS011;2750;49.050;9.250;2022-07-23T08:55:12;15.75;;;14.35;;
5454;SDS011;2750;49.050;9.250;2022-07-23T09:00:15;17.85;;;15.95;;
5454;SDS011;2750;49.050;9.250;2022-07-23T09:05:17;16.05;;;14.45;;
5454;SDS011;2750;49.050;9.250;2022-07-23T09:10:19;17.67;;;16.00;;
5454;SDS011;2750;49.050;9.250;2022-07-23T09:15:22;17.80;;;16.13;;
5454;SDS011;2750;49.050;9.250;2022-07-23T09:20:23;16.15;;;14.63;;
5454;SDS011;2750;49.050;9.250;2022-07-23T09:25:25;16.90;;;15.25;;
5454;SDS011;2750;49.050;9.250;2022-07-23T09:30:28;16.50;;;14.77;;
5454;SDS011;2750;49.050;9.250;2022-07-23T09:35:44;14.48;;;13.07;;
5454;SDS011;2750;49.050;9.250;2022-07-23T09:40:47;11.95;;;10.95;;
5454;SDS011;2750;49.050;9.250;2022-07-23T09:46:17;12.73;;;11.52;;
5454;SDS011;2750;49.050;9.250;2022-07-23T09:51:20;12.48;;;11.27;;
5454;SDS011;2750;49.050;9.250;2022-07-23T09:56:26;11.20;;;10.23;;
5454;SDS011;2750;49.050;9.250;2022-07-23T10:01:30;8.20;;;7.50;;
5454;SDS011;2750;49.050;9.250;2022-07-23T10:06:32;10.77;;;9.15;;
5454;SDS011;2750;49.050;9.250;2022-07-23T10:11:35;10.70;;;9.68;;
5454;SDS011;2750;49.050;9.250;2022-07-23T10:16:38;10.27;;;9.38;;
5454;SDS011;2750;49.050;9.250;2022-07-23T10:21:42;10.45;;;9.48;;
5454;SDS011;2750;49.050;9.250;2022-07-23T10:26:50;9.77;;;8.90;;
5454;SDS011;2750;49.050;9.250;2022-07-23T10:32:02;9.90;;;8.95;;
5454;SDS011;2750;49.050;9.250;2022-07-23T10:37:12;10.50;;;9.70;;
5454;SDS011;2750;49.050;9.250;2022-07-23T10:42:20;10.43;;;9.43;;
5454;SDS011;2750;49.050;9.250;2022-07-23T10:47:27;10.50;;;9.48;;
5454;SDS011;2750;49.050;9.250;2022-07-23T10:52:41;9.35;;;8.45;;
5454;SDS011;2750;49.050;9.250;2022-07-23T10:58:13;8.85;;;8.25;;
5454;SDS011;2750;49.050;9.250;2022-07-23T11:03:31;8.20;;;7.50;;
5454;SDS011;2750;49.050;9.250;2022-07-23T11:08:37;8.50;;;7.75;;
5454;SDS011;2750;49.050;9.250;2022-07-23T11:24:11;8.13;;;7.43;;
5454;SDS011;2750;49.050;9.250;2022-07-23T11:34:45;8.70;;;7.97;;
5454;SDS011;2750;49.050;9.250;2022-07-23T11:39:48;9.38;;;8.68;;
5454;SDS011;2750;49.050;9.250;2022-07-23T11:44:53;9.60;;;8.80;;
5454;SDS011;2750;49.050;9.250;2022-07-23T11:49:57;8.32;;;7.63;;
5454;SDS011;2750;49.050;9.250;2022-07-23T11:55:00;8.90;;;8.25;;
5454;SDS011;2750;49.050;9.250;2022-07-23T12:00:05;9.50;;;8.70;;
5454;SDS011;2750;49.050;9.250;2022-07-23T12:05:12;10.27;;;9.48;;
5454;SDS011;2750;49.050;9.250;2022-07-23T12:10:15;9.23;;;8.43;;
5454;SDS011;2750;49.050;9.250;2022-07-23T12:15:19;10.40;;;9.45;;
5454;SDS011;2750;49.050;9.250;2022-07-23T12:20:24;8.85;;;8.05;;
5454;SDS011;2750;49.050;9.250;2022-07-23T12:25:28;10.30;;;9.30;;
5454;SDS011;2750;49.050;9.250;2022-07-23T12:30:31;10.60;;;9.60;;
5454;SDS011;2750;49.050;9.250;2022-07-23T12:35:40;9.75;;;8.95;;
5454;SDS011;2750;49.050;9.250;2022-07-23T12:40:43;8.82;;;8.05;;
5454;SDS011;2750;49.050;9.250;2022-07-23T12:45:46;9.70;;;9.00;;
5454;SDS011;2750;49.050;9.250;2022-07-23T12:50:52;8.75;;;8.05;;
5454;SDS011;2750;49.050;9.250;2022-07-23T12:55:59;8.20;;;7.60;;
5454;SDS011;2750;49.050;9.250;2022-07-23T13:01:03;8.73;;;8.02;;
5454;SDS011;2750;49.050;9.250;2022-07-23T13:06:08;9.32;;;8.55;;
5454;SDS011;2750;49.050;9.250;2022-07-23T13:11:11;9.38;;;8.68;;
5454;SDS011;2750;49.050;9.250;2022-07-23T13:16:13;8.27;;;7.60;;
5454;SDS011;2750;49.050;9.250;2022-07-23T13:21:16;9.50;;;8.45;;
5454;SDS011;2750;49.050;9.250;2022-07-23T13:26:18;9.40;;;8.60;;
5454;SDS011;2750;49.050;9.250;2022-07-23T13:31:19;9.13;;;8.30;;
5454;SDS011;2750;49.050;9.250;2022-07-23T13:36:22;9.15;;;8.35;;
5454;SDS011;2750;49.050;9.250;2022-07-23T13:41:24;8.00;;;7.43;;
5454;SDS011;2750;49.050;9.250;2022-07-23T13:46:25;8.43;;;7.72;;
5454;SDS011;2750;49.050;9.250;2022-07-23T13:51:28;9.27;;;8.40;;
5454;SDS011;2750;49.050;9.250;2022-07-23T13:56:30;8.65;;;7.93;;
5454;SDS011;2750;49.050;9.250;2022-07-23T14:01:31;8.45;;;7.75;;
5454;SDS011;2750;49.050;9.250;2022-07-23T14:06:36;8.88;;;8.18;;
5454;SDS011;2750;49.050;9.250;2022-07-23T14:11:38;8.95;;;8.15;;
5454;SDS011;2750;49.050;9.250;2022-07-23T14:16:39;9.27;;;8.48;;
5454;SDS011;2750;49.050;9.250;2022-07-23T14:21:42;9.80;;;9.00;;
5454;SDS011;2750;49.050;9.250;2022-07-23T14:26:44;9.75;;;8.88;;
5454;SDS011;2750;49.050;9.250;2022-07-23T14:31:46;9.38;;;8.57;;
5454;SDS011;2750;49.050;9.250;2022-07-23T14:36:49;10.07;;;9.05;;
5454;SDS011;2750;49.050;9.250;2022-07-23T14:41:51;9.70;;;8.95;;
5454;SDS011;2750;49.050;9.250;2022-07-23T14:46:53;10.40;;;9.48;;
5454;SDS011;2750;49.050;9.250;2022-07-23T14:51:56;10.40;;;9.60;;
5454;SDS011;2750;49.050;9.250;2022-07-23T14:56:58;10.25;;;9.35;;
5454;SDS011;2750;49.050;9.250;2022-07-23T15:02:00;10.65;;;9.63;;
5454;SDS011;2750;49.050;9.250;2022-07-23T15:07:03;10.30;;;9.50;;
5454;SDS011;2750;49.050;9.250;2022-07-23T15:12:05;10.05;;;9.30;;
5454;SDS011;2750;49.050;9.250;2022-07-23T15:17:07;10.52;;;9.63;;
5454;SDS011;2750;49.050;9.250;2022-07-23T15:22:12;10.27;;;9.38;;
5454;SDS011;2750;49.050;9.250;2022-07-23T15:27:14;9.57;;;8.77;;
5454;SDS011;2750;49.050;9.250;2022-07-23T15:32:17;11.85;;;10.90;;
5454;SDS011;2750;49.050;9.250;2022-07-23T15:37:20;11.05;;;10.05;;
5454;SDS011;2750;49.050;9.250;2022-07-23T15:42:23;10.18;;;9.38;;
5454;SDS011;2750;49.050;9.250;2022-07-23T15:47:24;10.98;;;10.02;;
5454;SDS011;2750;49.050;9.250;2022-07-23T15:52:27;11.35;;;10.32;;
5454;SDS011;2750;49.050;9.250;2022-07-23T15:57:28;11.07;;;10.00;;
5454;SDS011;2750;49.050;9.250;2022-07-23T16:02:30;10.27;;;9.48;;
5454;SDS011;2750;49.050;9.250;2022-07-23T16:07:33;11.45;;;10.55;;
5454;SDS011;2750;49.050;9.250;2022-07-23T16:12:36;14.10;;;12.88;;
5454;SDS011;2750;49.050;9.250;2022-07-23T16:17:38;11.80;;;10.73;;
5454;SDS011;2750;49.050;9.250;2022-07-23T16:22:41;11.55;;;10.65;;
5454;SDS011;2750;49.050;9.250;2022-07-23T16:27:42;12.18;;;11.15;;
5454;SDS011;2750;49.050;9.250;2022-07-23T16:32:44;11.85;;;10.85;;
5454;SDS011;2750;49.050;9.250;2022-07-23T16:37:47;12.10;;;11.10;;
5454;SDS011;2750;49.050;9.250;2022-07-23T16:42:48;11.73;;;10.82;;
5454;SDS011;2750;49.050;9.250;2022-07-23T16:47:50;11.32;;;10.32;;
5454;SDS011;2750;49.050;9.250;2022-07-23T16:52:53;12.93;;;11.68;;
5454;SDS011;2750;49.050;9.250;2022-07-23T16:57:54;11.80;;;10.88;;
5454;SDS011;2750;49.050;9.250;2022-07-23T17:02:56;13.48;;;11.40;;
5454;SDS011;2750;49.050;9.250;2022-07-23T17:08:01;11.48;;;10.65;;
5454;SDS011;2750;49.050;9.250;2022-07-23T17:13:03;13.55;;;11.10;;
5454;SDS011;2750;49.050;9.250;2022-07-23T17:18:05;11.32;;;10.43;;
5454;SDS011;2750;49.050;9.250;2022-07-23T17:23:08;11.60;;;10.40;;
5454;SDS011;2750;49.050;9.250;2022-07-23T17:28:11;11.50;;;10.50;;
5454;SDS011;2750;49.050;9.250;2022-07-23T17:33:12;11.57;;;10.57;;
5454;SDS011;2750;49.050;9.250;2022-07-23T17:38:15;11.93;;;10.93;;
5454;SDS011;2750;49.050;9.250;2022-07-23T17:43:16;11.63;;;10.60;;
5454;SDS011;2750;49.050;9.250;2022-07-23T17:48:18;12.10;;;11.10;;
5454;SDS011;2750;49.050;9.250;2022-07-23T17:53:21;12.18;;;11.18;;
5454;SDS011;2750;49.050;9.250;2022-07-23T17:58:23;12.73;;;11.63;;
5454;SDS011;2750;49.050;9.250;2022-07-23T18:03:25;12.10;;;11.20;;
5454;SDS011;2750;49.050;9.250;2022-07-23T18:08:27;11.65;;;10.75;;
5454;SDS011;2750;49.050;9.250;2022-07-23T18:13:29;12.00;;;11.10;;
5454;SDS011;2750;49.050;9.250;2022-07-23T18:18:31;12.93;;;11.63;;
5454;SDS011;2750;49.050;9.250;2022-07-23T18:23:36;12.38;;;11.25;;
5454;SDS011;2750;49.050;9.250;2022-07-23T18:28:39;12.15;;;10.93;;
5454;SDS011;2750;49.050;9.250;2022-07-23T18:33:40;14.48;;;13.27;;
5454;SDS011;2750;49.050;9.250;2022-07-23T18:38:43;14.38;;;13.07;;
5454;SDS011;2750;49.050;9.250;2022-07-23T18:43:44;12.65;;;11.68;;
5454;SDS011;2750;49.050;9.250;2022-07-23T18:48:47;12.63;;;11.63;;
5454;SDS011;2750;49.050;9.250;2022-07-23T18:53:50;13.75;;;12.65;;
5454;SDS011;2750;49.050;9.250;2022-07-23T18:58:52;11.32;;;10.15;;
5454;SDS011;2750;49.050;9.250;2022-07-23T19:03:53;12.55;;;11.40;;
5454;SDS011;2750;49.050;9.250;2022-07-23T19:08:56;12.68;;;11.48;;
5454;SDS011;2750;49.050;9.250;2022-07-23T19:13:58;13.43;;;12.27;;
5454;SDS011;2750;49.050;9.250;2022-07-23T19:18:59;13.48;;;12.15;;
5454;SDS011;2750;49.050;9.250;2022-07-23T19:24:02;13.63;;;12.43;;
5454;SDS011;2750;49.050;9.250;2022-07-23T19:29:05;12.40;;;11.40;;
5454;SDS011;2750;49.050;9.250;2022-07-23T19:34:06;13.45;;;12.25;;
5454;SDS011;2750;49.050;9.250;2022-07-23T19:39:09;12.35;;;11.25;;
5454;SDS011;2750;49.050;9.250;2022-07-23T19:44:10;13.10;;;11.80;;
5454;SDS011;2750;49.050;9.250;2022-07-23T19:49:12;12.70;;;11.52;;
5454;SDS011;2750;49.050;9.250;2022-07-23T19:54:15;12.30;;;11.18;;
5454;SDS011;2750;49.050;9.250;2022-07-23T19:59:16;13.02;;;11.90;;
5454;SDS011;2750;49.050;9.250;2022-07-23T20:04:18;13.35;;;12.25;;
5454;SDS011;2750;49.050;9.250;2022-07-23T20:09:21;12.48;;;11.32;;
5454;SDS011;2750;49.050;9.250;2022-07-23T20:14:23;13.40;;;12.32;;
5454;SDS011;2750;49.050;9.250;2022-07-23T20:19:24;14.02;;;12.82;;
5454;SDS011;2750;49.050;9.250;2022-07-23T20:24:27;13.77;;;12.60;;
5454;SDS011;2750;49.050;9.250;2022-07-23T20:29:28;15.25;;;13.70;;
5454;SDS011;2750;49.050;9.250;2022-07-23T20:34:30;12.98;;;11.88;;
5454;SDS011;2750;49.050;9.250;2022-07-23T20:39:33;13.52;;;12.20;;
5454;SDS011;2750;49.050;9.250;2022-07-23T20:44:34;13.32;;;12.15;;
5454;SDS011;2750;49.050;9.250;2022-07-23T20:49:36;12.63;;;11.48;;
5454;SDS011;2750;49.050;9.250;2022-07-23T20:54:39;13.77;;;12.30;;
5454;SDS011;2750;49.050;9.250;2022-07-23T20:59:40;13.95;;;12.80;;
5454;SDS011;2750;49.050;9.250;2022-07-23T21:04:43;12.25;;;11.15;;
5454;SDS011;2750;49.050;9.250;2022-07-23T21:09:46;12.38;;;11.35;;
5454;SDS011;2750;49.050;9.250;2022-07-23T21:14:48;12.95;;;11.90;;
5454;SDS011;2750;49.050;9.250;2022-07-23T21:19:49;11.65;;;10.68;;
5454;SDS011;2750;49.050;9.250;2022-07-23T21:24:52;13.17;;;12.17;;
5454;SDS011;2750;49.050;9.250;2022-07-23T21:29:54;12.60;;;11.47;;
5454;SDS011;2750;49.050;9.250;2022-07-23T21:34:55;13.63;;;12.47;;
5454;SDS011;2750;49.050;9.250;2022-07-23T21:39:58;12.53;;;11.53;;
5454;SDS011;2750;49.050;9.250;2022-07-23T21:45:00;15.53;;;14.20;;
5454;SDS011;2750;49.050;9.250;2022-07-23T21:50:01;12.63;;;11.53;;
5454;SDS011;2750;49.050;9.250;2022-07-23T21:55:05;15.00;;;13.73;;
5454;SDS011;2750;49.050;9.250;2022-07-23T22:00:08;13.73;;;12.53;;
5454;SDS011;2750;49.050;9.250;2022-07-23T22:05:13;13.87;;;12.53;;
5454;SDS011;2750;49.050;9.250;2022-07-23T22:10:16;14.43;;;13.23;;
5454;SDS011;2750;49.050;9.250;2022-07-23T22:15:17;15.03;;;13.63;;
5454;SDS011;2750;49.050;9.250;2022-07-23T22:20:19;14.87;;;13.63;;
5454;SDS011;2750;49.050;9.250;2022-07-23T22:25:23;14.67;;;13.37;;
5454;SDS011;2750;49.050;9.250;2022-07-23T22:30:25;15.57;;;14.10;;
5454;SDS011;2750;49.050;9.250;2022-07-23T22:35:26;17.23;;;15.63;;
5454;SDS011;2750;49.050;9.250;2022-07-23T22:40:29;18.80;;;17.10;;
5454;SDS011;2750;49.050;9.250;2022-07-23T22:45:30;17.20;;;15.70;;
5454;SDS011;2750;49.050;9.250;2022-07-23T22:50:32;16.37;;;14.87;;
5454;SDS011;2750;49.050;9.250;2022-07-23T22:55:35;15.10;;;13.90;;
5454;SDS011;2750;49.050;9.250;2022-07-23T23:00:36;17.37;;;15.33;;
5454;SDS011;2750;49.050;9.250;2022-07-23T23:05:38;16.50;;;15.00;;
5454;SDS011;2750;49.050;9.250;2022-07-23T23:10:41;16.53;;;15.13;;
5454;SDS011;2750;49.050;9.250;2022-07-23T23:15:42;17.67;;;16.00;;
5454;SDS011;2750;49.050;9.250;2022-07-23T23:20:44;18.20;;;16.50;;
5454;SDS011;2750;49.050;9.250;2022-07-23T23:25:46;17.63;;;16.00;;
5454;SDS011;2750;49.050;9.250;2022-07-23T23:30:48;18.07;;;16.37;;
5454;SDS011;2750;49.050;9.250;2022-07-23T23:35:52;19.57;;;17.67;;
5454;SDS011;2750;49.050;9.250;2022-07-23T23:40:54;16.97;;;15.27;;
5454;SDS011;2750;49.050;9.250;2022-07-23T23:45:57;18.83;;;16.83;;
5454;SDS011;2750;49.050;9.250;2022-07-23T23:50:58;17.83;;;16.13;;
5454;SDS011;2750;49.050;9.250;2022-07-23T23:56:01;19.80;;;17.90;;
